Florida Highway — 3EPT6 — position and weather

sailwx.info

Track history (hours):
 
Tides and Currents Weather Stations Pressure Air Temp Water Temp Dewpoint Dewpoint Depression Visibility Wind Speed Wind Dir Waves Ship Positions

Florida Highway

Last reported at 2017-Sep-19 19:49 UTC. Time now 2017-Sep-23 00:27 UTC.
Position N 31°05' E 122°43'.

Length 199 m; draft 8.9 m.

Type: Ship. MMSI: 372805000.

Date/timePositionNaut miles runAvg speedWind from/ knotsBaromVisibWave heightAir tempDewpointWater temp
2017-Sep-19 19:49N 31°05' E 122°43'617.6
2017-Sep-19 19:30N 31°05' E 122°36'714.2
2017-Sep-19 19:00N 31°06' E 122°28'612.0
2017-Sep-19 18:31N 31°06' E 122°21'714.0
2017-Sep-19 18:00N 31°09' E 122°14'714.7
2017-Sep-19 17:31N 31°13' E 122°07'713.9
2017-Sep-19 17:00N 31°15' E 121°59'612.4
2017-Sep-19 16:30N 31°16' E 121°52'612.1
2017-Sep-19 16:00N 31°18' E 121°45'4 7.5
2017-Sep-19 15:30N 31°19' E 121°41'0 0.2
2017-Sep-19 15:00N 31°19' E 121°41'0 0.0
2017-Sep-19 14:29N 31°19' E 121°41'0 0.0
2017-Sep-19 14:00N 31°19' E 121°41'0 0.0
2017-Sep-19 13:30N 31°19' E 121°41'0 0.0
2017-Sep-19 13:00N 31°19' E 121°41'0 0.0
2017-Sep-19 12:29N 31°19' E 121°41'0 0.0
2017-Sep-19 12:00N 31°19' E 121°41'0 0.0
2017-Sep-19 11:30N 31°19' E 121°41'0 0.0
2017-Sep-19 11:00N 31°19' E 121°41'0 0.0
2017-Sep-19 10:30N 31°19' E 121°41'0 0.0
2017-Sep-19 09:59N 31°19' E 121°41'0 0.0
2017-Sep-19 09:26N 31°19' E 121°41'0 0.0
2017-Sep-19 09:00N 31°19' E 121°41'0 0.0
2017-Sep-19 08:30N 31°19' E 121°41'0 0.0
2017-Sep-19 08:00N 31°19' E 121°41'0 0.0
2017-Sep-19 07:30N 31°19' E 121°41'0 0.0
2017-Sep-19 06:59N 31°19' E 121°41'0 0.0
2017-Sep-19 06:29N 31°19' E 121°41'0 0.0
2017-Sep-19 05:59N 31°19' E 121°41'0 0.0
2017-Sep-19 05:30N 31°19' E 121°41'0 0.0
2017-Sep-19 05:00N 31°19' E 121°41'0 0.0
2017-Sep-19 04:30N 31°19' E 121°41'1 1.8
2017-Sep-19 04:01N 31°20' E 121°41'5 9.2
2017-Sep-19 03:31N 31°18' E 121°46'510.4
2017-Sep-19 03:00N 31°16' E 121°52'612.2
2017-Sep-19 02:31N 31°15' E 121°59'611.2
2017-Sep-19 02:00N 31°14' E 122°05'510.0
2017-Sep-19 01:30N 31°11' E 122°10'510.3
2017-Sep-19 01:00N 31°08' E 122°15'5 9.2
2017-Sep-19 00:30N 31°06' E 122°20'510.6
2017-Sep-19 00:00N 31°07' E 122°26'4 7.1
2017-Sep-18 23:30N 31°07' E 122°30'3 6.2
2017-Sep-18 23:00N 31°07' E 122°34'3 5.2
2017-Sep-18 22:31N 31°07' E 122°37'3 6.3
2017-Sep-18 22:00N 31°06' E 122°41'3 5.7
2017-Sep-18 21:30N 31°07' E 122°44'3 6.6
2017-Sep-18 21:00N 31°06' E 122°48'4 7.4
2017-Sep-18 20:30N 31°06' E 122°52'4 7.7
2017-Sep-18 20:00N 31°06' E 122°57'4 7.5
2017-Sep-18 19:29N 31°07' E 123°01'6 3.3
2017-Sep-18 17:41N 31°12' E 123°04'0 0.6
2017-Sep-18 17:27N 31°12' E 123°04'0 0.7
2017-Sep-18 16:59N 31°12' E 123°04'0 0.9
2017-Sep-18 16:30N 31°11' E 123°04'0 0.9
2017-Sep-18 16:00N 31°11' E 123°04'0 0.9
2017-Sep-18 15:30N 31°11' E 123°04'1 1.1
2017-Sep-18 15:00N 31°10' E 123°04'1 1.4
2017-Sep-18 14:29N 31°09' E 123°05'1 1.6
2017-Sep-18 13:59N 31°09' E 123°05'1 1.7
2017-Sep-18 13:30N 31°08' E 123°06'1 2.0
2017-Sep-18 13:00N 31°07' E 123°07'1 2.2
2017-Sep-18 12:30N 31°07' E 123°07'1 2.2
2017-Sep-18 12:00N 31°06' E 123°08'1 2.1
2017-Sep-18 11:30N 31°05' E 123°09'1 2.2
2017-Sep-18 11:00N 31°05' E 123°10'6 0.8
2017-Sep-18 03:29N 31°09' E 123°15'0 0.4
2017-Sep-18 02:43N 31°08' E 123°15'0 0.5
2017-Sep-18 02:31N 31°08' E 123°15'1 1.0
2017-Sep-18 01:51N 31°08' E 123°15'5 0.9
2017-Sep-17 19:51N 31°06' E 123°21'16 3.7
2017-Sep-17 15:31N 31°04' E 123°03'3 9.4
2017-Sep-17 15:14N 31°03' E 122°60'2 7.4
2017-Sep-17 15:00N 31°02' E 122°58'1 1.3
2017-Sep-17 13:50N 31°03' E 122°60'1 2.2
2017-Sep-17 13:30N 31°03' E 123°00'1 2.4
2017-Sep-17 13:00N 31°03' E 123°02'1 2.7
2017-Sep-17 12:29N 31°04' E 123°03'  
Track history (hours):
 
Tides and Currents Weather Stations Pressure Air Temp Water Temp Dewpoint Dewpoint Depression Visibility Wind Speed Wind Dir Waves Ship Positions

Florida Highway

Last reported at 2017-Sep-19 19:49 UTC. Time now 2017-Sep-23 00:27 UTC.
Position N 31°05' E 122°43'.

Length 199 m; draft 8.9 m.

Type: Ship. MMSI: 372805000.

Date/timePositionNaut miles runAvg speedWind from/ knotsBaromVisibWave heightAir tempDewpointWater temp
2017-Sep-19 19:49N 31°05' E 122°43'617.6
2017-Sep-19 19:30N 31°05' E 122°36'714.2
2017-Sep-19 19:00N 31°06' E 122°28'612.0
2017-Sep-19 18:31N 31°06' E 122°21'714.0
2017-Sep-19 18:00N 31°09' E 122°14'714.7
2017-Sep-19 17:31N 31°13' E 122°07'713.9
2017-Sep-19 17:00N 31°15' E 121°59'612.4
2017-Sep-19 16:30N 31°16' E 121°52'612.1
2017-Sep-19 16:00N 31°18' E 121°45'4 7.5
2017-Sep-19 15:30N 31°19' E 121°41'0 0.2
2017-Sep-19 15:00N 31°19' E 121°41'0 0.0
2017-Sep-19 14:29N 31°19' E 121°41'0 0.0
2017-Sep-19 14:00N 31°19' E 121°41'0 0.0
2017-Sep-19 13:30N 31°19' E 121°41'0 0.0
2017-Sep-19 13:00N 31°19' E 121°41'0 0.0
2017-Sep-19 12:29N 31°19' E 121°41'0 0.0
2017-Sep-19 12:00N 31°19' E 121°41'0 0.0
2017-Sep-19 11:30N 31°19' E 121°41'0 0.0
2017-Sep-19 11:00N 31°19' E 121°41'0 0.0
2017-Sep-19 10:30N 31°19' E 121°41'0 0.0
2017-Sep-19 09:59N 31°19' E 121°41'0 0.0
2017-Sep-19 09:26N 31°19' E 121°41'0 0.0
2017-Sep-19 09:00N 31°19' E 121°41'0 0.0
2017-Sep-19 08:30N 31°19' E 121°41'0 0.0
2017-Sep-19 08:00N 31°19' E 121°41'0 0.0
2017-Sep-19 07:30N 31°19' E 121°41'0 0.0
2017-Sep-19 06:59N 31°19' E 121°41'0 0.0
2017-Sep-19 06:29N 31°19' E 121°41'0 0.0
2017-Sep-19 05:59N 31°19' E 121°41'0 0.0
2017-Sep-19 05:30N 31°19' E 121°41'0 0.0
2017-Sep-19 05:00N 31°19' E 121°41'0 0.0
2017-Sep-19 04:30N 31°19' E 121°41'1 1.8
2017-Sep-19 04:01N 31°20' E 121°41'5 9.2
2017-Sep-19 03:31N 31°18' E 121°46'510.4
2017-Sep-19 03:00N 31°16' E 121°52'612.2
2017-Sep-19 02:31N 31°15' E 121°59'611.2
2017-Sep-19 02:00N 31°14' E 122°05'510.0
2017-Sep-19 01:30N 31°11' E 122°10'510.3
2017-Sep-19 01:00N 31°08' E 122°15'5 9.2
2017-Sep-19 00:30N 31°06' E 122°20'510.6
2017-Sep-19 00:00N 31°07' E 122°26'4 7.1
2017-Sep-18 23:30N 31°07' E 122°30'3 6.2
2017-Sep-18 23:00N 31°07' E 122°34'3 5.2
2017-Sep-18 22:31N 31°07' E 122°37'3 6.3
2017-Sep-18 22:00N 31°06' E 122°41'3 5.7
2017-Sep-18 21:30N 31°07' E 122°44'3 6.6
2017-Sep-18 21:00N 31°06' E 122°48'4 7.4
2017-Sep-18 20:30N 31°06' E 122°52'4 7.7
2017-Sep-18 20:00N 31°06' E 122°57'4 7.5
2017-Sep-18 19:29N 31°07' E 123°01'6 3.3
2017-Sep-18 17:41N 31°12' E 123°04'0 0.6
2017-Sep-18 17:27N 31°12' E 123°04'0 0.7
2017-Sep-18 16:59N 31°12' E 123°04'0 0.9
2017-Sep-18 16:30N 31°11' E 123°04'0 0.9
2017-Sep-18 16:00N 31°11' E 123°04'0 0.9
2017-Sep-18 15:30N 31°11' E 123°04'1 1.1
2017-Sep-18 15:00N 31°10' E 123°04'1 1.4
2017-Sep-18 14:29N 31°09' E 123°05'1 1.6
2017-Sep-18 13:59N 31°09' E 123°05'1 1.7
2017-Sep-18 13:30N 31°08' E 123°06'1 2.0
2017-Sep-18 13:00N 31°07' E 123°07'1 2.2
2017-Sep-18 12:30N 31°07' E 123°07'1 2.2
2017-Sep-18 12:00N 31°06' E 123°08'1 2.1
2017-Sep-18 11:30N 31°05' E 123°09'1 2.2
2017-Sep-18 11:00N 31°05' E 123°10'6 0.8
2017-Sep-18 03:29N 31°09' E 123°15'0 0.4
2017-Sep-18 02:43N 31°08' E 123°15'0 0.5
2017-Sep-18 02:31N 31°08' E 123°15'1 1.0
2017-Sep-18 01:51N 31°08' E 123°15'5 0.9
2017-Sep-17 19:51N 31°06' E 123°21'16 3.7
2017-Sep-17 15:31N 31°04' E 123°03'3 9.4
2017-Sep-17 15:14N 31°03' E 122°60'2 7.4
2017-Sep-17 15:00N 31°02' E 122°58'1 1.3
2017-Sep-17 13:50N 31°03' E 122°60'1 2.2
2017-Sep-17 13:30N 31°03' E 123°00'1 2.4
2017-Sep-17 13:00N 31°03' E 123°02'1 2.7
2017-Sep-17 12:29N 31°04' E 123°03'  

Dump ship's entire track history